Terminal Aerodrome Forecast
Issued by NWS Bismarck, ND

Home | Current Version | Previous Version | Text Only | Print | Product List | Glossary Off
Versions: 1 2 3 4 5 6 7 8 9 10 11 12 13 14 15

381
FTUS43 KBIS 281138
TAFBIS
TAF
KBIS 281138Z 2812/2912 09004KT P6SM OVC040
     FM281500 07005KT P6SM OVC050
     FM282200 08005KT P6SM BKN120=

USA.gov is the U.S. government's official web portal to all federal, state and local government web resources and services.